sensor_id;sensor_type;location;lat;lon;timestamp;temperature;humidity
4245;DHT22;2136;48.502;9.194;2022-12-26T00:01:11;10.40;88.50
4245;DHT22;2136;48.502;9.194;2022-12-26T00:03:38;10.40;88.80
4245;DHT22;2136;48.502;9.194;2022-12-26T00:06:11;10.30;89.00
4245;DHT22;2136;48.502;9.194;2022-12-26T00:08:38;10.30;89.30
4245;DHT22;2136;48.502;9.194;2022-12-26T00:11:05;10.20;89.50
4245;DHT22;2136;48.502;9.194;2022-12-26T00:13:32;10.20;89.90
4245;DHT22;2136;48.502;9.194;2022-12-26T00:16:05;10.10;90.20
4245;DHT22;2136;48.502;9.194;2022-12-26T00:18:32;10.10;90.40
4245;DHT22;2136;48.502;9.194;2022-12-26T00:20:59;10.10;90.20
4245;DHT22;2136;48.502;9.194;2022-12-26T00:23:25;10.00;90.40
4245;DHT22;2136;48.502;9.194;2022-12-26T00:25:52;10.00;90.60
4245;DHT22;2136;48.502;9.194;2022-12-26T00:28:19;9.90;91.20
4245;DHT22;2136;48.502;9.194;2022-12-26T00:30:46;9.90;91.30
4245;DHT22;2136;48.502;9.194;2022-12-26T00:33:14;9.90;91.10
4245;DHT22;2136;48.502;9.194;2022-12-26T00:35:41;9.80;91.20
4245;DHT22;2136;48.502;9.194;2022-12-26T00:38:07;9.80;91.50
4245;DHT22;2136;48.502;9.194;2022-12-26T00:40:34;9.80;91.80
4245;DHT22;2136;48.502;9.194;2022-12-26T00:43:01;9.70;91.90
4245;DHT22;2136;48.502;9.194;2022-12-26T00:45:28;9.70;91.70
4245;DHT22;2136;48.502;9.194;2022-12-26T00:47:54;9.80;91.80
4245;DHT22;2136;48.502;9.194;2022-12-26T00:50:22;9.70;92.00
4245;DHT22;2136;48.502;9.194;2022-12-26T00:52:49;9.70;92.30
4245;DHT22;2136;48.502;9.194;2022-12-26T00:55:16;9.70;92.50
4245;DHT22;2136;48.502;9.194;2022-12-26T00:57:43;9.60;92.50
4245;DHT22;2136;48.502;9.194;2022-12-26T01:00:11;9.60;92.50
4245;DHT22;2136;48.502;9.194;2022-12-26T01:02:38;9.60;92.70
4245;DHT22;2136;48.502;9.194;2022-12-26T01:05:06;9.60;93.00
4245;DHT22;2136;48.502;9.194;2022-12-26T01:07:35;9.30;93.00
4245;DHT22;2136;48.502;9.194;2022-12-26T01:10:02;9.50;93.00
4245;DHT22;2136;48.502;9.194;2022-12-26T01:12:29;9.50;93.10
4245;DHT22;2136;48.502;9.194;2022-12-26T01:14:56;9.50;93.50
4245;DHT22;2136;48.502;9.194;2022-12-26T01:17:23;9.50;93.90
4245;DHT22;2136;48.502;9.194;2022-12-26T01:19:50;9.50;94.00
4245;DHT22;2136;48.502;9.194;2022-12-26T01:22:17;9.50;94.30
4245;DHT22;2136;48.502;9.194;2022-12-26T01:24:45;9.50;94.50
4245;DHT22;2136;48.502;9.194;2022-12-26T01:27:12;9.50;94.70
4245;DHT22;2136;48.502;9.194;2022-12-26T01:29:39;9.50;94.50
4245;DHT22;2136;48.502;9.194;2022-12-26T01:32:06;9.50;94.50
4245;DHT22;2136;48.502;9.194;2022-12-26T01:34:33;9.50;94.40
4245;DHT22;2136;48.502;9.194;2022-12-26T01:36:59;9.50;94.40
4245;DHT22;2136;48.502;9.194;2022-12-26T01:39:26;9.40;94.60
4245;DHT22;2136;48.502;9.194;2022-12-26T01:41:54;9.40;95.10
4245;DHT22;2136;48.502;9.194;2022-12-26T01:45:00;9.40;95.20
4245;DHT22;2136;48.502;9.194;2022-12-26T01:47:35;9.40;95.80
4245;DHT22;2136;48.502;9.194;2022-12-26T01:50:04;9.40;95.70
4245;DHT22;2136;48.502;9.194;2022-12-26T01:52:34;9.40;95.40
4245;DHT22;2136;48.502;9.194;2022-12-26T01:55:03;9.40;95.40
4245;DHT22;2136;48.502;9.194;2022-12-26T01:57:37;9.40;95.00
4245;DHT22;2136;48.502;9.194;2022-12-26T02:00:23;9.40;94.50
4245;DHT22;2136;48.502;9.194;2022-12-26T02:02:50;9.30;94.70
4245;DHT22;2136;48.502;9.194;2022-12-26T02:05:35;9.30;94.90
4245;DHT22;2136;48.502;9.194;2022-12-26T02:08:04;9.30;94.40
4245;DHT22;2136;48.502;9.194;2022-12-26T02:10:40;9.20;94.80
4245;DHT22;2136;48.502;9.194;2022-12-26T02:13:11;9.20;95.30
4245;DHT22;2136;48.502;9.194;2022-12-26T02:15:38;9.20;95.30
4245;DHT22;2136;48.502;9.194;2022-12-26T02:18:06;9.10;95.40
4245;DHT22;2136;48.502;9.194;2022-12-26T02:20:40;9.10;96.00
4245;DHT22;2136;48.502;9.194;2022-12-26T02:23:29;9.20;96.50
4245;DHT22;2136;48.502;9.194;2022-12-26T02:30:00;9.20;97.30
4245;DHT22;2136;48.502;9.194;2022-12-26T02:35:30;9.30;99.10
4245;DHT22;2136;48.502;9.194;2022-12-26T02:38:08;9.40;99.90
4245;DHT22;2136;48.502;9.194;2022-12-26T02:40:45;9.40;99.90
4245;DHT22;2136;48.502;9.194;2022-12-26T02:43:21;9.50;99.90
4245;DHT22;2136;48.502;9.194;2022-12-26T02:45:56;9.60;99.90
4245;DHT22;2136;48.502;9.194;2022-12-26T02:48:45;9.70;99.90
4245;DHT22;2136;48.502;9.194;2022-12-26T02:51:19;9.80;99.90
4245;DHT22;2136;48.502;9.194;2022-12-26T02:54:09;9.90;99.90
4245;DHT22;2136;48.502;9.194;2022-12-26T02:57:03;10.00;99.50
4245;DHT22;2136;48.502;9.194;2022-12-26T02:59:57;10.10;98.80
4245;DHT22;2136;48.502;9.194;2022-12-26T03:02:48;10.10;96.50
4245;DHT22;2136;48.502;9.194;2022-12-26T03:05:39;10.10;95.20
4245;DHT22;2136;48.502;9.194;2022-12-26T03:08:28;10.10;94.20
4245;DHT22;2136;48.502;9.194;2022-12-26T03:11:13;10.10;94.00
4245;DHT22;2136;48.502;9.194;2022-12-26T03:14:02;10.10;93.50
4245;DHT22;2136;48.502;9.194;2022-12-26T03:16:31;10.00;93.30
4245;DHT22;2136;48.502;9.194;2022-12-26T03:19:16;10.10;93.20
4245;DHT22;2136;48.502;9.194;2022-12-26T03:21:46;10.10;92.80
4245;DHT22;2136;48.502;9.194;2022-12-26T03:24:15;10.10;92.90
4245;DHT22;2136;48.502;9.194;2022-12-26T03:26:46;10.10;92.60
4245;DHT22;2136;48.502;9.194;2022-12-26T03:29:18;10.10;92.30
4245;DHT22;2136;48.502;9.194;2022-12-26T03:32:07;10.10;92.30
4245;DHT22;2136;48.502;9.194;2022-12-26T03:34:39;10.00;92.30
4245;DHT22;2136;48.502;9.194;2022-12-26T03:37:20;10.10;92.60
4245;DHT22;2136;48.502;9.194;2022-12-26T03:40:03;10.10;92.80
4245;DHT22;2136;48.502;9.194;2022-12-26T03:42:56;10.10;93.10
4245;DHT22;2136;48.502;9.194;2022-12-26T03:45:47;10.20;93.50
4245;DHT22;2136;48.502;9.194;2022-12-26T03:48:40;10.20;93.90
4245;DHT22;2136;48.502;9.194;2022-12-26T03:51:30;10.30;94.40
4245;DHT22;2136;48.502;9.194;2022-12-26T03:54:21;10.40;94.70
4245;DHT22;2136;48.502;9.194;2022-12-26T03:57:09;10.40;94.80
4245;DHT22;2136;48.502;9.194;2022-12-26T04:00:01;10.50;94.80
4245;DHT22;2136;48.502;9.194;2022-12-26T04:02:47;10.50;94.80
4245;DHT22;2136;48.502;9.194;2022-12-26T04:05:35;10.50;95.00
4245;DHT22;2136;48.502;9.194;2022-12-26T04:08:24;10.60;95.10
4245;DHT22;2136;48.502;9.194;2022-12-26T04:11:13;10.60;94.80
4245;DHT22;2136;48.502;9.194;2022-12-26T04:14:02;10.70;94.00
4245;DHT22;2136;48.502;9.194;2022-12-26T04:16:51;10.70;93.20
4245;DHT22;2136;48.502;9.194;2022-12-26T04:19:49;10.60;92.70
4245;DHT22;2136;48.502;9.194;2022-12-26T04:22:21;10.60;92.00
4245;DHT22;2136;48.502;9.194;2022-12-26T04:25:09;10.60;91.70
4245;DHT22;2136;48.502;9.194;2022-12-26T04:27:55;10.50;91.50
4245;DHT22;2136;48.502;9.194;2022-12-26T04:30:41;10.50;91.60
4245;DHT22;2136;48.502;9.194;2022-12-26T04:33:35;10.50;91.60
4245;DHT22;2136;48.502;9.194;2022-12-26T04:36:29;10.50;92.20
4245;DHT22;2136;48.502;9.194;2022-12-26T04:39:16;10.60;92.70
4245;DHT22;2136;48.502;9.194;2022-12-26T04:42:02;10.60;93.10
4245;DHT22;2136;48.502;9.194;2022-12-26T04:44:48;10.70;93.50
4245;DHT22;2136;48.502;9.194;2022-12-26T04:47:16;10.70;93.20
4245;DHT22;2136;48.502;9.194;2022-12-26T04:49:44;10.80;92.70
4245;DHT22;2136;48.502;9.194;2022-12-26T04:52:28;10.90;92.40
4245;DHT22;2136;48.502;9.194;2022-12-26T04:55:16;10.90;91.80
4245;DHT22;2136;48.502;9.194;2022-12-26T04:57:43;11.00;91.20
4245;DHT22;2136;48.502;9.194;2022-12-26T05:00:12;11.10;90.60
4245;DHT22;2136;48.502;9.194;2022-12-26T05:02:39;11.20;90.20
4245;DHT22;2136;48.502;9.194;2022-12-26T05:05:23;11.20;88.90
4245;DHT22;2136;48.502;9.194;2022-12-26T05:08:17;11.30;87.70
4245;DHT22;2136;48.502;9.194;2022-12-26T05:11:04;11.40;86.70
4245;DHT22;2136;48.502;9.194;2022-12-26T05:13:31;11.30;85.60
4245;DHT22;2136;48.502;9.194;2022-12-26T05:15:59;11.40;85.10
4245;DHT22;2136;48.502;9.194;2022-12-26T05:18:44;11.40;84.00
4245;DHT22;2136;48.502;9.194;2022-12-26T05:21:28;11.50;83.30
4245;DHT22;2136;48.502;9.194;2022-12-26T05:24:12;11.60;82.90
4245;DHT22;2136;48.502;9.194;2022-12-26T05:26:56;11.60;82.40
4245;DHT22;2136;48.502;9.194;2022-12-26T05:29:41;11.60;82.40
4245;DHT22;2136;48.502;9.194;2022-12-26T05:32:09;11.60;82.20
4245;DHT22;2136;48.502;9.194;2022-12-26T05:34:35;11.60;81.90
4245;DHT22;2136;48.502;9.194;2022-12-26T05:37:01;11.60;81.50
4245;DHT22;2136;48.502;9.194;2022-12-26T05:39:28;11.60;81.30
4245;DHT22;2136;48.502;9.194;2022-12-26T05:41:55;11.60;80.90
4245;DHT22;2136;48.502;9.194;2022-12-26T05:44:22;11.60;80.50
4245;DHT22;2136;48.502;9.194;2022-12-26T05:46:48;11.70;80.20
4245;DHT22;2136;48.502;9.194;2022-12-26T05:49:17;11.70;80.00
4245;DHT22;2136;48.502;9.194;2022-12-26T05:51:43;11.70;79.60
4245;DHT22;2136;48.502;9.194;2022-12-26T05:54:10;11.70;79.30
4245;DHT22;2136;48.502;9.194;2022-12-26T05:56:37;11.70;78.90
4245;DHT22;2136;48.502;9.194;2022-12-26T05:59:04;11.70;78.70
4245;DHT22;2136;48.502;9.194;2022-12-26T06:01:30;11.70;78.70
4245;DHT22;2136;48.502;9.194;2022-12-26T06:03:58;11.70;78.70
4245;DHT22;2136;48.502;9.194;2022-12-26T06:06:27;11.70;78.90
4245;DHT22;2136;48.502;9.194;2022-12-26T06:08:55;11.80;78.70
4245;DHT22;2136;48.502;9.194;2022-12-26T06:11:23;11.80;78.10
4245;DHT22;2136;48.502;9.194;2022-12-26T06:13:50;11.80;78.00
4245;DHT22;2136;48.502;9.194;2022-12-26T06:16:18;11.80;78.20
4245;DHT22;2136;48.502;9.194;2022-12-26T06:18:45;11.80;78.50
4245;DHT22;2136;48.502;9.194;2022-12-26T06:21:15;11.80;78.80
4245;DHT22;2136;48.502;9.194;2022-12-26T06:23:44;11.80;79.10
4245;DHT22;2136;48.502;9.194;2022-12-26T06:26:11;11.80;79.50
4245;DHT22;2136;48.502;9.194;2022-12-26T06:28:38;11.80;79.80
4245;DHT22;2136;48.502;9.194;2022-12-26T06:31:07;11.70;80.70
4245;DHT22;2136;48.502;9.194;2022-12-26T06:33:34;11.60;80.10
4245;DHT22;2136;48.502;9.194;2022-12-26T06:36:06;11.60;79.80
4245;DHT22;2136;48.502;9.194;2022-12-26T06:38:33;11.60;79.70
4245;DHT22;2136;48.502;9.194;2022-12-26T06:41:03;11.60;79.40
4245;DHT22;2136;48.502;9.194;2022-12-26T06:43:30;11.60;79.30
4245;DHT22;2136;48.502;9.194;2022-12-26T06:45:58;11.60;79.40
4245;DHT22;2136;48.502;9.194;2022-12-26T06:48:25;11.70;79.40
4245;DHT22;2136;48.502;9.194;2022-12-26T06:50:53;11.60;78.60
4245;DHT22;2136;48.502;9.194;2022-12-26T06:53:20;11.60;78.50
4245;DHT22;2136;48.502;9.194;2022-12-26T06:55:47;11.60;78.80
4245;DHT22;2136;48.502;9.194;2022-12-26T06:58:15;11.40;78.90
4245;DHT22;2136;48.502;9.194;2022-12-26T07:00:42;11.50;79.30
4245;DHT22;2136;48.502;9.194;2022-12-26T07:03:09;11.50;79.30
4245;DHT22;2136;48.502;9.194;2022-12-26T07:05:36;11.40;79.20
4245;DHT22;2136;48.502;9.194;2022-12-26T07:08:04;11.40;79.30
4245;DHT22;2136;48.502;9.194;2022-12-26T07:10:34;11.40;79.40
4245;DHT22;2136;48.502;9.194;2022-12-26T07:13:01;11.30;79.50
4245;DHT22;2136;48.502;9.194;2022-12-26T07:15:30;11.40;79.70
4245;DHT22;2136;48.502;9.194;2022-12-26T07:17:56;11.40;79.80
4245;DHT22;2136;48.502;9.194;2022-12-26T07:20:23;11.40;79.80
4245;DHT22;2136;48.502;9.194;2022-12-26T07:22:50;11.40;80.00
4245;DHT22;2136;48.502;9.194;2022-12-26T07:25:17;11.40;80.50
4245;DHT22;2136;48.502;9.194;2022-12-26T07:27:44;11.40;80.50
4245;DHT22;2136;48.502;9.194;2022-12-26T07:30:11;11.40;80.40
4245;DHT22;2136;48.502;9.194;2022-12-26T07:32:39;11.40;80.80
4245;DHT22;2136;48.502;9.194;2022-12-26T07:35:07;11.40;80.80
4245;DHT22;2136;48.502;9.194;2022-12-26T07:37:33;11.40;81.00
4245;DHT22;2136;48.502;9.194;2022-12-26T07:40:00;11.30;81.00
4245;DHT22;2136;48.502;9.194;2022-12-26T07:42:27;11.30;81.10
4245;DHT22;2136;48.502;9.194;2022-12-26T07:44:57;11.40;81.40
4245;DHT22;2136;48.502;9.194;2022-12-26T07:47:24;11.40;81.30
4245;DHT22;2136;48.502;9.194;2022-12-26T07:49:52;11.40;81.40
4245;DHT22;2136;48.502;9.194;2022-12-26T07:52:18;11.40;81.40
4245;DHT22;2136;48.502;9.194;2022-12-26T07:54:45;11.40;81.50
4245;DHT22;2136;48.502;9.194;2022-12-26T07:57:12;11.40;81.60
4245;DHT22;2136;48.502;9.194;2022-12-26T07:59:39;11.50;81.80
4245;DHT22;2136;48.502;9.194;2022-12-26T08:02:08;11.50;81.90
4245;DHT22;2136;48.502;9.194;2022-12-26T08:04:35;11.60;82.00
4245;DHT22;2136;48.502;9.194;2022-12-26T08:07:03;11.70;82.00
4245;DHT22;2136;48.502;9.194;2022-12-26T08:09:30;11.70;82.10
4245;DHT22;2136;48.502;9.194;2022-12-26T08:11:57;11.80;82.00
4245;DHT22;2136;48.502;9.194;2022-12-26T08:14:23;12.00;82.00
4245;DHT22;2136;48.502;9.194;2022-12-26T08:16:50;11.90;81.60
4245;DHT22;2136;48.502;9.194;2022-12-26T08:19:17;12.00;81.20
4245;DHT22;2136;48.502;9.194;2022-12-26T08:21:44;12.00;80.80
4245;DHT22;2136;48.502;9.194;2022-12-26T08:24:12;12.00;80.70
4245;DHT22;2136;48.502;9.194;2022-12-26T08:26:39;12.10;80.60
4245;DHT22;2136;48.502;9.194;2022-12-26T08:29:06;12.10;80.40
4245;DHT22;2136;48.502;9.194;2022-12-26T08:31:33;12.20;80.20
4245;DHT22;2136;48.502;9.194;2022-12-26T08:33:59;12.20;79.90
4245;DHT22;2136;48.502;9.194;2022-12-26T08:36:26;12.30;79.50
4245;DHT22;2136;48.502;9.194;2022-12-26T08:38:53;12.20;78.80
4245;DHT22;2136;48.502;9.194;2022-12-26T08:41:21;12.20;78.70
4245;DHT22;2136;48.502;9.194;2022-12-26T08:43:48;12.20;78.80
4245;DHT22;2136;48.502;9.194;2022-12-26T08:46:16;12.20;78.90
4245;DHT22;2136;48.502;9.194;2022-12-26T08:48:44;12.20;79.80
4245;DHT22;2136;48.502;9.194;2022-12-26T08:51:13;12.10;80.90
4245;DHT22;2136;48.502;9.194;2022-12-26T08:53:40;12.00;81.90
4245;DHT22;2136;48.502;9.194;2022-12-26T08:56:11;12.00;82.80
4245;DHT22;2136;48.502;9.194;2022-12-26T08:58:39;11.90;83.70
4245;DHT22;2136;48.502;9.194;2022-12-26T09:01:08;11.90;85.40
4245;DHT22;2136;48.502;9.194;2022-12-26T09:03:35;11.80;87.10
4245;DHT22;2136;48.502;9.194;2022-12-26T09:06:02;11.80;87.60
4245;DHT22;2136;48.502;9.194;2022-12-26T09:08:29;11.70;88.10
4245;DHT22;2136;48.502;9.194;2022-12-26T09:11:01;11.70;89.80
4245;DHT22;2136;48.502;9.194;2022-12-26T09:13:29;11.60;90.70
4245;DHT22;2136;48.502;9.194;2022-12-26T09:16:07;11.60;91.30
4245;DHT22;2136;48.502;9.194;2022-12-26T09:18:34;11.60;92.10
4245;DHT22;2136;48.502;9.194;2022-12-26T09:21:01;11.60;92.80
4245;DHT22;2136;48.502;9.194;2022-12-26T09:23:29;11.60;93.40
4245;DHT22;2136;48.502;9.194;2022-12-26T09:26:02;11.60;94.10
4245;DHT22;2136;48.502;9.194;2022-12-26T09:28:29;11.60;94.80
4245;DHT22;2136;48.502;9.194;2022-12-26T09:30:58;11.60;95.50
4245;DHT22;2136;48.502;9.194;2022-12-26T09:33:27;11.60;96.80
4245;DHT22;2136;48.502;9.194;2022-12-26T09:35:53;11.60;98.90
4245;DHT22;2136;48.502;9.194;2022-12-26T09:38:20;11.50;99.90
4245;DHT22;2136;48.502;9.194;2022-12-26T09:41:03;11.50;99.90
4245;DHT22;2136;48.502;9.194;2022-12-26T09:43:44;11.60;99.90
4245;DHT22;2136;48.502;9.194;2022-12-26T09:46:20;11.50;99.90
4245;DHT22;2136;48.502;9.194;2022-12-26T09:48:55;11.60;99.90
4245;DHT22;2136;48.502;9.194;2022-12-26T09:51:23;11.70;99.90
4245;DHT22;2136;48.502;9.194;2022-12-26T09:53:51;11.70;99.90
4245;DHT22;2136;48.502;9.194;2022-12-26T09:56:20;11.80;99.90
4245;DHT22;2136;48.502;9.194;2022-12-26T09:58:52;11.80;99.90
4245;DHT22;2136;48.502;9.194;2022-12-26T10:01:23;11.80;99.90
4245;DHT22;2136;48.502;9.194;2022-12-26T10:03:53;11.80;99.90
4245;DHT22;2136;48.502;9.194;2022-12-26T10:06:22;11.80;99.90
4245;DHT22;2136;48.502;9.194;2022-12-26T10:09:12;11.80;99.90
4245;DHT22;2136;48.502;9.194;2022-12-26T10:11:52;11.80;99.90
4245;DHT22;2136;48.502;9.194;2022-12-26T10:14:27;11.80;99.90
4245;DHT22;2136;48.502;9.194;2022-12-26T10:17:01;11.80;99.90
4245;DHT22;2136;48.502;9.194;2022-12-26T10:19:44;11.80;99.90
4245;DHT22;2136;48.502;9.194;2022-12-26T10:22:33;11.80;99.90
4245;DHT22;2136;48.502;9.194;2022-12-26T10:25:13;11.80;99.90
4245;DHT22;2136;48.502;9.194;2022-12-26T10:27:42;11.80;99.90
4245;DHT22;2136;48.502;9.194;2022-12-26T10:30:17;11.80;99.90
4245;DHT22;2136;48.502;9.194;2022-12-26T10:32:50;11.80;99.90
4245;DHT22;2136;48.502;9.194;2022-12-26T10:35:24;11.70;99.90
4245;DHT22;2136;48.502;9.194;2022-12-26T10:37:54;11.70;99.90
4245;DHT22;2136;48.502;9.194;2022-12-26T10:40:26;11.70;99.90
4245;DHT22;2136;48.502;9.194;2022-12-26T10:42:54;11.70;99.90
4245;DHT22;2136;48.502;9.194;2022-12-26T10:45:26;11.80;99.90
4245;DHT22;2136;48.502;9.194;2022-12-26T10:47:55;11.80;99.90
4245;DHT22;2136;48.502;9.194;2022-12-26T10:50:26;11.80;99.90
4245;DHT22;2136;48.502;9.194;2022-12-26T10:52:54;11.90;99.90
4245;DHT22;2136;48.502;9.194;2022-12-26T10:55:26;11.90;99.90
4245;DHT22;2136;48.502;9.194;2022-12-26T10:57:53;11.80;99.90
4245;DHT22;2136;48.502;9.194;2022-12-26T11:00:22;11.80;99.90
4245;DHT22;2136;48.502;9.194;2022-12-26T11:03:08;11.80;99.90
4245;DHT22;2136;48.502;9.194;2022-12-26T11:05:38;11.70;99.90
4245;DHT22;2136;48.502;9.194;2022-12-26T11:08:08;11.70;99.90
4245;DHT22;2136;48.502;9.194;2022-12-26T11:10:43;11.70;99.90
4245;DHT22;2136;48.502;9.194;2022-12-26T11:13:20;11.80;99.90
4245;DHT22;2136;48.502;9.194;2022-12-26T11:15:48;11.80;99.90
4245;DHT22;2136;48.502;9.194;2022-12-26T11:18:19;11.80;99.90
4245;DHT22;2136;48.502;9.194;2022-12-26T11:20:48;11.80;99.90
4245;DHT22;2136;48.502;9.194;2022-12-26T11:23:25;11.80;99.90
4245;DHT22;2136;48.502;9.194;2022-12-26T11:25:53;11.90;99.90
4245;DHT22;2136;48.502;9.194;2022-12-26T11:28:26;11.90;99.90
4245;DHT22;2136;48.502;9.194;2022-12-26T11:30:54;11.90;99.90
4245;DHT22;2136;48.502;9.194;2022-12-26T11:33:24;11.80;99.90
4245;DHT22;2136;48.502;9.194;2022-12-26T11:35:57;11.80;99.90
4245;DHT22;2136;48.502;9.194;2022-12-26T11:38:26;11.80;99.90
4245;DHT22;2136;48.502;9.194;2022-12-26T11:41:08;11.80;99.90
4245;DHT22;2136;48.502;9.194;2022-12-26T11:43:55;11.90;99.90
4245;DHT22;2136;48.502;9.194;2022-12-26T11:46:35;11.90;99.90
4245;DHT22;2136;48.502;9.194;2022-12-26T11:49:03;11.90;99.90
4245;DHT22;2136;48.502;9.194;2022-12-26T11:51:38;11.80;99.90
4245;DHT22;2136;48.502;9.194;2022-12-26T11:54:19;11.80;99.90
4245;DHT22;2136;48.502;9.194;2022-12-26T11:56:46;11.80;99.90
4245;DHT22;2136;48.502;9.194;2022-12-26T11:59:17;11.80;99.90
4245;DHT22;2136;48.502;9.194;2022-12-26T12:01:45;11.80;99.90
4245;DHT22;2136;48.502;9.194;2022-12-26T12:04:12;11.80;99.90
4245;DHT22;2136;48.502;9.194;2022-12-26T12:06:51;11.80;99.90
4245;DHT22;2136;48.502;9.194;2022-12-26T12:09:23;11.90;99.90
4245;DHT22;2136;48.502;9.194;2022-12-26T12:11:58;11.80;99.90
4245;DHT22;2136;48.502;9.194;2022-12-26T12:14:32;11.90;99.90
4245;DHT22;2136;48.502;9.194;2022-12-26T12:17:07;11.80;99.90
4245;DHT22;2136;48.502;9.194;2022-12-26T12:19:47;11.80;99.90
4245;DHT22;2136;48.502;9.194;2022-12-26T12:22:45;11.70;99.90
4245;DHT22;2136;48.502;9.194;2022-12-26T12:25:30;11.70;99.90
4245;DHT22;2136;48.502;9.194;2022-12-26T12:28:06;11.70;99.90
4245;DHT22;2136;48.502;9.194;2022-12-26T12:30:41;11.70;99.90
4245;DHT22;2136;48.502;9.194;2022-12-26T12:33:22;11.70;99.90
4245;DHT22;2136;48.502;9.194;2022-12-26T12:35:58;11.70;99.90
4245;DHT22;2136;48.502;9.194;2022-12-26T12:38:32;11.70;99.90
4245;DHT22;2136;48.502;9.194;2022-12-26T12:41:17;11.70;99.90
4245;DHT22;2136;48.502;9.194;2022-12-26T12:43:52;11.70;99.90
4245;DHT22;2136;48.502;9.194;2022-12-26T12:46:30;11.70;99.90
4245;DHT22;2136;48.502;9.194;2022-12-26T12:49:06;11.70;99.90
4245;DHT22;2136;48.502;9.194;2022-12-26T12:51:41;11.60;99.90
4245;DHT22;2136;48.502;9.194;2022-12-26T12:54:43;11.60;99.90
4245;DHT22;2136;48.502;9.194;2022-12-26T12:57:16;11.60;99.90
4245;DHT22;2136;48.502;9.194;2022-12-26T12:59:54;11.60;99.90
4245;DHT22;2136;48.502;9.194;2022-12-26T13:02:30;11.60;99.90
4245;DHT22;2136;48.502;9.194;2022-12-26T13:05:06;11.60;99.90
4245;DHT22;2136;48.502;9.194;2022-12-26T13:07:39;11.70;99.90
4245;DHT22;2136;48.502;9.194;2022-12-26T13:10:16;11.70;99.90
4245;DHT22;2136;48.502;9.194;2022-12-26T13:12:46;11.70;99.90
4245;DHT22;2136;48.502;9.194;2022-12-26T13:15:23;11.70;99.90
4245;DHT22;2136;48.502;9.194;2022-12-26T13:17:56;11.80;99.90
4245;DHT22;2136;48.502;9.194;2022-12-26T13:20:29;11.80;99.90
4245;DHT22;2136;48.502;9.194;2022-12-26T13:23:01;11.80;99.90
4245;DHT22;2136;48.502;9.194;2022-12-26T13:25:56;11.80;99.90
4245;DHT22;2136;48.502;9.194;2022-12-26T13:28:29;11.80;99.90
4245;DHT22;2136;48.502;9.194;2022-12-26T13:30:58;11.80;99.90
4245;DHT22;2136;48.502;9.194;2022-12-26T13:33:25;11.80;99.90
4245;DHT22;2136;48.502;9.194;2022-12-26T13:35:55;11.80;99.90
4245;DHT22;2136;48.502;9.194;2022-12-26T13:38:23;11.80;99.90
4245;DHT22;2136;48.502;9.194;2022-12-26T13:40:55;11.80;99.90
4245;DHT22;2136;48.502;9.194;2022-12-26T13:43:59;11.80;99.90
4245;DHT22;2136;48.502;9.194;2022-12-26T13:46:37;11.80;98.60
4245;DHT22;2136;48.502;9.194;2022-12-26T13:49:30;11.80;97.50
4245;DHT22;2136;48.502;9.194;2022-12-26T13:52:34;11.80;97.30
4245;DHT22;2136;48.502;9.194;2022-12-26T13:55:27;11.80;95.90
4245;DHT22;2136;48.502;9.194;2022-12-26T13:58:18;11.80;95.80
4245;DHT22;2136;48.502;9.194;2022-12-26T14:00:49;11.80;95.60
4245;DHT22;2136;48.502;9.194;2022-12-26T14:03:36;11.80;95.70
4245;DHT22;2136;48.502;9.194;2022-12-26T14:09:18;11.80;94.90
4245;DHT22;2136;48.502;9.194;2022-12-26T14:12:03;11.80;95.40
4245;DHT22;2136;48.502;9.194;2022-12-26T14:14:45;11.80;95.00
4245;DHT22;2136;48.502;9.194;2022-12-26T14:17:19;11.80;95.30
4245;DHT22;2136;48.502;9.194;2022-12-26T14:19:58;11.80;95.00
4245;DHT22;2136;48.502;9.194;2022-12-26T14:22:37;11.80;94.30
4245;DHT22;2136;48.502;9.194;2022-12-26T14:25:12;11.90;93.30
4245;DHT22;2136;48.502;9.194;2022-12-26T14:27:46;11.90;93.00
4245;DHT22;2136;48.502;9.194;2022-12-26T14:30:29;11.90;92.60
4245;DHT22;2136;48.502;9.194;2022-12-26T14:33:18;11.80;92.90
4245;DHT22;2136;48.502;9.194;2022-12-26T14:35:57;11.80;92.50
4245;DHT22;2136;48.502;9.194;2022-12-26T14:38:36;11.80;91.80
4245;DHT22;2136;48.502;9.194;2022-12-26T14:41:06;11.80;91.40
4245;DHT22;2136;48.502;9.194;2022-12-26T14:43:35;11.80;91.10
4245;DHT22;2136;48.502;9.194;2022-12-26T14:46:08;11.80;91.10
4245;DHT22;2136;48.502;9.194;2022-12-26T14:48:50;11.80;91.00
4245;DHT22;2136;48.502;9.194;2022-12-26T14:51:39;11.80;90.70
4245;DHT22;2136;48.502;9.194;2022-12-26T15:00:30;11.70;89.00
4245;DHT22;2136;48.502;9.194;2022-12-26T15:06:50;11.60;88.40
4245;DHT22;2136;48.502;9.194;2022-12-26T15:09:40;11.60;87.70
4245;DHT22;2136;48.502;9.194;2022-12-26T15:15:26;11.70;86.50
4245;DHT22;2136;48.502;9.194;2022-12-26T15:18:12;11.60;86.00
4245;DHT22;2136;48.502;9.194;2022-12-26T15:21:00;11.60;86.00
4245;DHT22;2136;48.502;9.194;2022-12-26T15:23:47;11.60;85.30
4245;DHT22;2136;48.502;9.194;2022-12-26T15:26:46;11.60;85.20
4245;DHT22;2136;48.502;9.194;2022-12-26T15:29:39;11.60;84.00
4245;DHT22;2136;48.502;9.194;2022-12-26T15:32:15;11.50;84.70
4245;DHT22;2136;48.502;9.194;2022-12-26T15:34:53;11.60;84.10
4245;DHT22;2136;48.502;9.194;2022-12-26T15:37:35;11.60;83.70
4245;DHT22;2136;48.502;9.194;2022-12-26T15:40:11;11.60;83.70
4245;DHT22;2136;48.502;9.194;2022-12-26T15:42:48;11.60;83.20
4245;DHT22;2136;48.502;9.194;2022-12-26T15:45:30;11.60;83.00
4245;DHT22;2136;48.502;9.194;2022-12-26T15:48:03;11.60;83.00
4245;DHT22;2136;48.502;9.194;2022-12-26T15:50:43;11.70;82.80
4245;DHT22;2136;48.502;9.194;2022-12-26T15:53:21;11.70;82.90
4245;DHT22;2136;48.502;9.194;2022-12-26T15:56:06;11.60;83.20
4245;DHT22;2136;48.502;9.194;2022-12-26T15:58:56;11.60;83.40
4245;DHT22;2136;48.502;9.194;2022-12-26T16:01:36;11.60;83.80
4245;DHT22;2136;48.502;9.194;2022-12-26T16:04:05;11.60;84.10
4245;DHT22;2136;48.502;9.194;2022-12-26T16:06:47;11.60;84.00
4245;DHT22;2136;48.502;9.194;2022-12-26T16:09:26;11.60;84.30
4245;DHT22;2136;48.502;9.194;2022-12-26T16:12:00;11.60;84.50
4245;DHT22;2136;48.502;9.194;2022-12-26T16:14:30;11.60;84.70
4245;DHT22;2136;48.502;9.194;2022-12-26T16:17:17;11.50;85.60
4245;DHT22;2136;48.502;9.194;2022-12-26T16:19:46;11.60;85.50
4245;DHT22;2136;48.502;9.194;2022-12-26T16:22:15;11.50;85.70
4245;DHT22;2136;48.502;9.194;2022-12-26T16:25:01;11.50;85.90
4245;DHT22;2136;48.502;9.194;2022-12-26T16:27:30;11.50;86.20
4245;DHT22;2136;48.502;9.194;2022-12-26T16:29:59;11.50;86.70
4245;DHT22;2136;48.502;9.194;2022-12-26T16:32:30;11.50;87.10
4245;DHT22;2136;48.502;9.194;2022-12-26T16:34:59;11.50;87.30
4245;DHT22;2136;48.502;9.194;2022-12-26T16:37:28;11.40;87.40
4245;DHT22;2136;48.502;9.194;2022-12-26T16:40:17;11.40;87.70
4245;DHT22;2136;48.502;9.194;2022-12-26T16:42:55;11.50;88.40
4245;DHT22;2136;48.502;9.194;2022-12-26T16:45:24;11.40;88.70
4245;DHT22;2136;48.502;9.194;2022-12-26T16:47:52;11.40;89.10
4245;DHT22;2136;48.502;9.194;2022-12-26T16:50:21;11.50;89.70
4245;DHT22;2136;48.502;9.194;2022-12-26T16:52:48;11.30;89.90
4245;DHT22;2136;48.502;9.194;2022-12-26T16:55:35;11.30;89.90
4245;DHT22;2136;48.502;9.194;2022-12-26T16:58:23;11.30;90.30
4245;DHT22;2136;48.502;9.194;2022-12-26T17:01:02;11.30;90.80
4245;DHT22;2136;48.502;9.194;2022-12-26T17:03:37;11.30;90.50
4245;DHT22;2136;48.502;9.194;2022-12-26T17:06:07;11.30;90.50
4245;DHT22;2136;48.502;9.194;2022-12-26T17:08:34;11.30;90.60
4245;DHT22;2136;48.502;9.194;2022-12-26T17:11:05;11.30;90.70
4245;DHT22;2136;48.502;9.194;2022-12-26T17:13:33;11.20;90.60